Sultan Abdul Aziz Shah International Airport Subang MY
ICAO: WMSA
IATA: SZB
Category: Medium
Scheduled Services: Yes

Elevation: 90 ft
TransAlt. 11000 ft.

Airport Communications:
LUMPUR DIRECTOR:125.1
LUMPUR RDO:347
LUMPUR APP/CON:132.8
SUBANG INFO:127.6
LUMPUR DELIVERY:126
SUBANG GND:121.9
LUMPUR:126.1
AIR FORCE GND:125.2
SUBANG TWR:118.2

WMSA Zoom In..

If you have problems with the map follow the link
https://www.worldairports.se/pages/airport.php?
ICAO=WMSA

Runways:

(A) RW 15 length 12402 ft width 148 ft
ILS 110.30 / hdg 149

(B) RW 33 length 12402 ft width 148 ft
ILS 109.90 / hdg 329

Location; WMSA
Day. 05 / Time. 14.00 Zulu
* QNH: 1012
* Temperature: 26° c. 78.8°f.
* Wind from: 000° Speed 00 kn.
Dewpoint: 24° c.
Visibility: 9000 m.
Clouds: Few 2600 ft.

WMSA 051400Z 00000KT 9000 FEW026 26/24 Q1012


Wind - Calm.

 
 
jpsmedia worldairports.se 2019   terms of use